createdAt,value
2022-08-09T00:00:21.456Z,6.68
2022-08-09T00:02:51.886Z,11.00
2022-08-09T00:06:19.038Z,7.28
2022-08-09T00:08:12.868Z,6.55
2022-08-09T00:10:59.573Z,6.13
2022-08-09T00:13:28.195Z,8.05
2022-08-09T00:16:02.667Z,6.25
2022-08-09T00:18:34.994Z,10.60
2022-08-09T00:21:08.657Z,8.68
2022-08-09T00:23:57.990Z,7.43
2022-08-09T00:26:29.995Z,8.50
2022-08-09T00:29:12.518Z,6.85
2022-08-09T00:32:00.856Z,7.60
2022-08-09T00:34:28.534Z,6.28
2022-08-09T00:37:00.756Z,6.73
2022-08-09T00:40:12.362Z,5.82
2022-08-09T00:44:19.571Z,8.05
2022-08-09T00:45:15.652Z,6.30
2022-08-09T00:47:44.006Z,6.35
2022-08-09T00:50:14.198Z,7.28
2022-08-09T00:52:42.738Z,7.65
2022-08-09T00:55:16.799Z,10.15
2022-08-09T00:57:59.304Z,11.20
2022-08-09T01:00:27.911Z,6.68
2022-08-09T01:03:02.591Z,7.20
2022-08-09T01:05:57.245Z,9.48
2022-08-09T01:08:31.881Z,7.35
2022-08-09T01:11:15.203Z,7.35
2022-08-09T01:14:03.060Z,7.53
2022-08-09T01:16:35.907Z,8.95
2022-08-09T01:19:42.903Z,8.70
2022-08-09T01:22:54.941Z,7.88
2022-08-09T01:26:05.463Z,13.87
2022-08-09T01:28:35.901Z,7.90
2022-08-09T01:31:07.967Z,8.50
2022-08-09T01:33:41.271Z,9.10
2022-08-09T01:36:13.632Z,7.47
2022-08-09T01:38:46.330Z,8.13
2022-08-09T01:41:55.564Z,9.85
2022-08-09T01:44:29.275Z,11.65
2022-08-09T01:47:00.376Z,7.35
2022-08-09T01:49:38.909Z,8.73
2022-08-09T01:52:10.418Z,7.18
2022-08-09T01:54:45.952Z,7.85
2022-08-09T01:57:20.549Z,8.57
2022-08-09T01:59:52.650Z,7.85
2022-08-09T02:02:23.888Z,8.38
2022-08-09T02:05:05.614Z,8.60
2022-08-09T02:08:35.826Z,6.78
2022-08-09T02:10:51.336Z,9.55
2022-08-09T02:13:22.136Z,8.63
2022-08-09T02:15:59.212Z,11.07
2022-08-09T02:18:29.368Z,7.82
2022-08-09T02:21:02.567Z,7.82
2022-08-09T02:26:25.032Z,10.60
2022-08-09T02:29:03.291Z,12.00
2022-08-09T02:31:36.143Z,7.97
2022-08-09T02:34:41.014Z,8.38
2022-08-09T02:37:15.837Z,9.57
2022-08-09T02:39:55.113Z,7.78
2022-08-09T02:45:05.103Z,8.63
2022-08-09T02:47:57.442Z,9.52
2022-08-09T02:50:29.143Z,7.72
2022-08-09T02:53:25.734Z,9.27
2022-08-09T02:55:58.689Z,8.60
2022-08-09T02:58:35.629Z,10.13
2022-08-09T03:01:08.247Z,11.63
2022-08-09T03:04:17.565Z,7.15
2022-08-09T03:06:29.410Z,8.85
2022-08-09T03:08:57.772Z,12.68
2022-08-09T03:11:30.152Z,9.15
2022-08-09T03:14:15.989Z,9.63
2022-08-09T03:16:48.290Z,10.65
2022-08-09T03:19:52.850Z,14.63
2022-08-09T03:22:12.300Z,7.38
2022-08-09T03:25:21.501Z,6.85
2022-08-09T03:27:48.193Z,7.93
2022-08-09T03:30:29.146Z,7.60
2022-08-09T03:32:59.738Z,7.13
2022-08-09T03:35:44.331Z,8.18
2022-08-09T03:38:28.549Z,8.55
2022-08-09T03:40:56.531Z,6.90
2022-08-09T03:43:23.796Z,7.25
2022-08-09T03:46:05.197Z,7.30
2022-08-09T03:48:42.931Z,10.10
2022-08-09T03:51:55.542Z,6.97
2022-08-09T03:54:14.600Z,8.20
2022-08-09T03:56:42.461Z,9.45
2022-08-09T03:59:17.114Z,8.93
2022-08-09T04:01:50.711Z,9.57
2022-08-09T04:04:18.876Z,7.72
2022-08-09T04:06:49.113Z,8.27
2022-08-09T04:09:47.410Z,6.75
2022-08-09T04:12:31.637Z,8.90
2022-08-09T04:15:01.447Z,8.55
2022-08-09T04:17:30.100Z,9.88
2022-08-09T04:19:58.866Z,6.20
2022-08-09T04:22:30.186Z,10.77
2022-08-09T04:25:00.010Z,7.32
2022-08-09T04:27:29.098Z,9.32
2022-08-09T04:29:57.259Z,6.43
2022-08-09T04:32:31.342Z,8.20
2022-08-09T04:35:01.523Z,8.85
2022-08-09T04:37:45.074Z,6.47
2022-08-09T04:40:29.034Z,9.60
2022-08-09T04:43:01.959Z,7.20
2022-08-09T04:45:31.054Z,8.48
2022-08-09T04:48:08.028Z,8.90
2022-08-09T04:50:38.312Z,8.25
2022-08-09T04:53:11.513Z,7.53
2022-08-09T04:55:58.049Z,9.50
2022-08-09T04:58:31.941Z,8.48
2022-08-09T05:01:01.450Z,8.57
2022-08-09T05:03:40.107Z,8.27
2022-08-09T05:06:21.962Z,7.25
2022-08-09T05:09:00.487Z,11.18
2022-08-09T05:11:32.387Z,10.68
2022-08-09T05:14:06.662Z,9.13
2022-08-09T05:16:43.826Z,8.10
2022-08-09T05:19:25.911Z,12.88
2022-08-09T05:21:55.322Z,9.18
2022-08-09T05:24:24.854Z,10.63
2022-08-09T05:26:53.274Z,10.40
2022-08-09T05:29:23.980Z,10.00
2022-08-09T05:31:58.444Z,9.10
2022-08-09T05:34:32.851Z,10.48
2022-08-09T05:37:04.912Z,9.27
2022-08-09T05:39:36.291Z,9.65
2022-08-09T05:42:17.294Z,9.50
2022-08-09T05:44:53.096Z,11.02
2022-08-09T05:47:22.848Z,9.93
2022-08-09T05:50:26.837Z,7.90
2022-08-09T05:52:40.324Z,7.43
2022-08-09T05:55:20.357Z,9.45
2022-08-09T05:57:56.662Z,7.95
2022-08-09T06:00:32.881Z,8.27
2022-08-09T06:03:02.174Z,9.23
2022-08-09T06:05:57.469Z,7.75
2022-08-09T06:08:24.213Z,10.95
2022-08-09T06:13:21.301Z,6.20
2022-08-09T06:15:51.396Z,9.48
2022-08-09T06:18:25.159Z,10.05
2022-08-09T06:20:57.822Z,10.57
2022-08-09T06:23:55.745Z,8.77
2022-08-09T06:26:20.920Z,8.73
2022-08-09T06:29:00.216Z,9.13
2022-08-09T06:31:40.301Z,6.50
2022-08-09T06:34:22.811Z,8.68
2022-08-09T06:36:58.903Z,8.75
2022-08-09T06:39:48.660Z,6.38
2022-08-09T06:42:24.810Z,6.93
2022-08-09T06:44:58.861Z,7.18
2022-08-09T06:47:39.627Z,7.13
2022-08-09T06:50:13.361Z,7.55
2022-08-09T06:52:48.592Z,7.60
2022-08-09T06:55:22.440Z,8.90
2022-08-09T06:58:01.361Z,9.75
2022-08-09T07:00:54.522Z,7.70
2022-08-09T07:03:19.879Z,8.70
2022-08-09T07:06:03.423Z,9.00
2022-08-09T07:08:32.639Z,8.57
2022-08-09T07:11:03.395Z,9.10
2022-08-09T07:13:31.740Z,8.65
2022-08-09T07:16:42.295Z,7.97
2022-08-09T07:19:06.300Z,8.82
2022-08-09T07:21:35.250Z,8.20
2022-08-09T07:24:05.071Z,8.50
2022-08-09T07:26:32.956Z,21.83
2022-08-09T07:29:08.364Z,14.80
2022-08-09T07:31:44.883Z,9.00
2022-08-09T07:34:20.190Z,10.80
2022-08-09T07:36:49.280Z,10.10
2022-08-09T07:39:17.493Z,10.02
2022-08-09T07:41:48.441Z,9.80
2022-08-09T07:44:15.788Z,10.57
2022-08-09T07:46:51.335Z,11.75
2022-08-09T07:49:19.375Z,9.00
2022-08-09T07:52:05.357Z,8.38
2022-08-09T07:54:35.190Z,5.70
2022-08-09T07:57:04.508Z,8.25
2022-08-09T07:59:51.924Z,9.73
2022-08-09T08:02:26.574Z,11.00
2022-08-09T08:04:54.066Z,10.85
2022-08-09T08:08:44.262Z,12.18
2022-08-09T08:10:10.808Z,9.30
2022-08-09T08:12:42.410Z,8.10
2022-08-09T08:15:24.306Z,7.90
2022-08-09T08:17:57.987Z,9.00
2022-08-09T08:20:30.622Z,8.07
2022-08-09T08:23:16.156Z,8.23
2022-08-09T08:25:48.306Z,7.75
2022-08-09T08:31:14.461Z,13.15
2022-08-09T08:33:52.739Z,6.72
2022-08-09T08:36:28.730Z,9.48
2022-08-09T08:38:59.677Z,6.28
2022-08-09T08:41:50.214Z,9.30
2022-08-09T08:44:23.208Z,7.72
2022-08-09T08:47:00.082Z,6.97
2022-08-09T08:49:46.432Z,6.45
2022-08-09T08:55:15.296Z,5.53
2022-08-09T08:57:56.567Z,5.82
2022-08-09T09:00:30.447Z,5.95
2022-08-09T09:03:11.694Z,4.60
2022-08-09T09:05:59.942Z,6.43
2022-08-09T09:08:37.900Z,4.85
2022-08-09T09:11:13.886Z,6.57
2022-08-09T09:13:56.933Z,5.95
2022-08-09T09:16:32.321Z,6.93
2022-08-09T09:19:37.408Z,4.22
2022-08-09T09:22:11.789Z,6.82
2022-08-09T09:24:46.821Z,5.38
2022-08-09T09:28:03.607Z,5.78
2022-08-09T09:30:32.938Z,8.20
2022-08-09T09:33:16.751Z,10.50
2022-08-09T09:36:01.565Z,8.85
2022-08-09T09:38:46.420Z,4.75
2022-08-09T09:41:22.743Z,6.63
2022-08-09T09:44:12.512Z,9.15
2022-08-09T09:46:42.861Z,4.80
2022-08-09T09:49:12.605Z,7.28
2022-08-09T09:51:40.935Z,5.15
2022-08-09T09:54:19.119Z,7.65
2022-08-09T09:58:01.002Z,5.57
2022-08-09T09:59:37.132Z,5.88
2022-08-09T10:02:04.500Z,6.32
2022-08-09T10:04:31.926Z,6.60
2022-08-09T10:07:03.612Z,8.15
2022-08-09T10:09:49.019Z,5.13
2022-08-09T10:12:31.301Z,5.97
2022-08-09T10:15:50.643Z,7.45
2022-08-09T10:18:12.420Z,8.70
2022-08-09T10:20:44.696Z,6.28
2022-08-09T10:23:17.453Z,8.10
2022-08-09T10:26:07.298Z,7.53
2022-08-09T10:28:37.590Z,7.28
2022-08-09T10:34:10.250Z,6.03
2022-08-09T10:36:50.272Z,6.75
2022-08-09T10:39:23.289Z,7.40
2022-08-09T10:41:56.000Z,6.82
2022-08-09T10:44:28.432Z,6.70
2022-08-09T10:48:11.905Z,9.77
2022-08-09T10:50:20.968Z,9.02
2022-08-09T10:53:10.489Z,5.77
2022-08-09T10:55:55.675Z,5.18
2022-08-09T10:58:34.658Z,5.05
2022-08-09T11:03:06.724Z,6.32
2022-08-09T11:04:28.158Z,7.43
2022-08-09T11:07:00.261Z,6.38
2022-08-09T11:09:41.372Z,6.47
2022-08-09T11:12:20.547Z,6.78
2022-08-09T11:14:55.911Z,5.80
2022-08-09T11:17:24.564Z,6.35
2022-08-09T11:20:10.760Z,6.07
2022-08-09T11:22:47.343Z,4.93
2022-08-09T11:25:47.102Z,5.10
2022-08-09T11:28:38.882Z,12.65
2022-08-09T11:31:49.880Z,4.40
2022-08-09T11:34:26.579Z,4.55
2022-08-09T11:36:56.816Z,4.47
2022-08-09T11:39:25.051Z,5.28
2022-08-09T11:42:08.075Z,4.97
2022-08-09T11:44:46.263Z,3.75
2022-08-09T11:47:14.570Z,5.30
2022-08-09T11:50:55.374Z,4.28
2022-08-09T11:53:16.394Z,5.55
2022-08-09T11:55:53.127Z,6.13
2022-08-09T11:58:32.666Z,7.15
2022-08-09T12:01:08.802Z,5.03
2022-08-09T12:03:57.369Z,5.03
2022-08-09T12:06:32.094Z,5.15
2022-08-09T12:09:19.674Z,4.68
2022-08-09T12:12:04.072Z,9.02
2022-08-09T12:14:37.036Z,6.30
2022-08-09T12:17:28.088Z,3.20
2022-08-09T12:20:22.206Z,4.03
2022-08-09T12:23:01.507Z,5.88
2022-08-09T12:25:37.036Z,4.30
2022-08-09T12:29:00.216Z,9.43
2022-08-09T12:31:10.862Z,5.30
2022-08-09T12:34:01.117Z,5.80
2022-08-09T12:36:33.852Z,5.28
2022-08-09T12:39:14.174Z,4.28
2022-08-09T12:42:21.182Z,5.57
2022-08-09T12:45:38.734Z,4.95
2022-08-09T12:48:56.220Z,3.47
2022-08-09T12:52:16.282Z,3.80
2022-08-09T12:56:14.701Z,3.47
2022-08-09T12:58:42.720Z,4.65
2022-08-09T13:01:22.946Z,4.80
2022-08-09T13:03:59.380Z,6.07
2022-08-09T13:06:34.820Z,4.68
2022-08-09T13:09:06.695Z,5.85
2022-08-09T13:11:39.621Z,4.38
2022-08-09T13:14:42.309Z,6.25
2022-08-09T13:17:05.198Z,5.80
2022-08-09T13:20:10.562Z,3.38
2022-08-09T13:23:01.647Z,6.13
2022-08-09T13:25:23.102Z,5.78
2022-08-09T13:27:55.994Z,4.18
2022-08-09T13:31:11.168Z,5.88
2022-08-09T13:33:22.705Z,3.75
2022-08-09T13:36:37.870Z,4.65
2022-08-09T13:38:57.904Z,4.03
2022-08-09T13:41:57.643Z,4.78
2022-08-09T13:44:16.262Z,3.72
2022-08-09T13:47:27.674Z,5.65
2022-08-09T13:49:39.485Z,3.38
2022-08-09T13:52:18.980Z,4.55
2022-08-09T13:54:59.749Z,4.20
2022-08-09T13:57:35.417Z,3.80
2022-08-09T14:00:16.985Z,5.70
2022-08-09T14:03:17.094Z,3.83
2022-08-09T14:06:01.122Z,3.80
2022-08-09T14:08:22.246Z,5.95
2022-08-09T14:10:52.137Z,8.07
2022-08-09T14:13:27.930Z,3.75
2022-08-09T14:16:14.815Z,4.45
2022-08-09T14:18:45.635Z,5.57
2022-08-09T14:21:18.602Z,3.95
2022-08-09T14:23:55.373Z,3.85
2022-08-09T14:26:32.127Z,5.85
2022-08-09T14:29:07.803Z,4.22
2022-08-09T14:31:53.420Z,5.57
2022-08-09T14:34:32.435Z,6.30
2022-08-09T14:37:02.663Z,4.68
2022-08-09T14:39:45.691Z,3.80
2022-08-09T14:42:32.026Z,5.70
2022-08-09T14:46:55.487Z,4.10
2022-08-09T14:47:58.575Z,3.90
2022-08-09T14:50:29.358Z,5.43
2022-08-09T14:52:58.603Z,5.60
2022-08-09T14:55:32.095Z,4.38
2022-08-09T14:58:03.037Z,6.28
2022-08-09T15:00:33.391Z,4.03
2022-08-09T15:03:06.552Z,4.47
2022-08-09T15:05:36.612Z,3.67
2022-08-09T15:08:05.653Z,5.78
2022-08-09T15:10:34.900Z,5.00
2022-08-09T15:13:04.023Z,5.30
2022-08-09T15:15:34.496Z,5.13
2022-08-09T15:18:13.976Z,5.35
2022-08-09T15:22:01.085Z,4.63
2022-08-09T15:23:55.864Z,5.35
2022-08-09T15:26:30.686Z,6.68
2022-08-09T15:28:58.425Z,6.85
2022-08-09T15:31:41.679Z,5.65
2022-08-09T15:34:17.227Z,8.32
2022-08-09T15:36:58.565Z,5.95
2022-08-09T15:39:34.831Z,4.15
2022-08-09T15:42:14.959Z,5.38
2022-08-09T15:44:42.393Z,4.15
2022-08-09T15:47:13.925Z,5.03
2022-08-09T15:50:00.477Z,4.43
2022-08-09T15:52:29.516Z,4.93
2022-08-09T15:54:57.526Z,6.72
2022-08-09T15:57:35.873Z,4.68
2022-08-09T16:00:25.643Z,4.13
2022-08-09T16:02:56.199Z,3.70
2022-08-09T16:05:47.082Z,4.65
2022-08-09T16:11:01.405Z,4.05
2022-08-09T16:14:04.115Z,3.83
2022-08-09T16:16:19.691Z,6.38
2022-08-09T16:18:47.784Z,4.88
2022-08-09T16:21:16.834Z,4.05
2022-08-09T16:23:50.917Z,5.45
2022-08-09T16:26:35.254Z,5.10
2022-08-09T16:29:11.295Z,5.03
2022-08-09T16:32:18.512Z,7.63
2022-08-09T16:34:54.630Z,4.88
2022-08-09T16:37:53.720Z,5.18
2022-08-09T16:40:11.924Z,5.30
2022-08-09T16:42:45.508Z,5.90
2022-08-09T16:45:18.614Z,4.68
2022-08-09T16:48:50.585Z,5.47
2022-08-09T16:50:38.164Z,6.70
2022-08-09T16:53:05.904Z,5.25
2022-08-09T16:55:57.904Z,4.30
2022-08-09T16:58:21.035Z,9.23
2022-08-09T17:00:49.313Z,5.40
2022-08-09T17:03:21.987Z,6.03
2022-08-09T17:06:06.655Z,13.48
2022-08-09T17:08:42.899Z,7.32
2022-08-09T17:11:15.621Z,7.53
2022-08-09T17:13:45.211Z,7.45
2022-08-09T17:16:12.697Z,5.00
2022-08-09T17:18:39.916Z,4.78
2022-08-09T17:24:27.274Z,3.83
2022-08-09T17:26:31.538Z,5.45
2022-08-09T17:29:05.572Z,4.57
2022-08-09T17:31:49.223Z,4.63
2022-08-09T17:34:38.054Z,4.20
2022-08-09T17:37:04.504Z,3.92
2022-08-09T17:39:52.933Z,6.43
2022-08-09T17:42:41.203Z,4.75
2022-08-09T17:45:15.670Z,6.93
2022-08-09T17:47:55.670Z,7.20
2022-08-09T17:50:36.975Z,4.63
2022-08-09T17:53:10.344Z,4.28
2022-08-09T17:55:49.715Z,4.00
2022-08-09T17:58:19.123Z,5.07
2022-08-09T18:00:48.288Z,3.58
2022-08-09T18:03:17.953Z,4.90
2022-08-09T18:05:52.926Z,3.70
2022-08-09T18:08:21.828Z,4.03
2022-08-09T18:11:00.769Z,5.32
2022-08-09T18:13:43.408Z,5.95
2022-08-09T18:16:28.889Z,2.95
2022-08-09T18:19:03.560Z,4.05
2022-08-09T18:21:41.202Z,5.63
2022-08-09T18:24:14.189Z,5.25
2022-08-09T18:26:46.649Z,5.63
2022-08-09T18:32:04.913Z,5.15
2022-08-09T18:34:35.163Z,5.20
2022-08-09T18:37:04.005Z,4.90
2022-08-09T18:39:32.801Z,5.45
2022-08-09T18:42:08.091Z,4.85
2022-08-09T18:44:36.268Z,8.88
2022-08-09T18:47:07.725Z,6.10
2022-08-09T18:49:43.048Z,4.32
2022-08-09T18:52:15.751Z,4.72
2022-08-09T18:54:52.889Z,4.22
2022-08-09T18:57:22.001Z,5.72
2022-08-09T18:59:57.619Z,8.38
2022-08-09T19:02:30.755Z,5.10
2022-08-09T19:05:20.617Z,5.38
2022-08-09T19:08:04.443Z,5.07
2022-08-09T19:10:39.197Z,3.78
2022-08-09T19:13:23.407Z,7.78
2022-08-09T19:15:59.305Z,4.93
2022-08-09T19:18:35.115Z,5.07
2022-08-09T19:21:09.703Z,5.63
2022-08-09T19:24:31.981Z,5.80
2022-08-09T19:26:31.920Z,4.97
2022-08-09T19:29:15.188Z,7.03
2022-08-09T19:31:51.109Z,6.30
2022-08-09T19:34:23.035Z,5.00
2022-08-09T19:36:53.721Z,5.20
2022-08-09T19:39:43.028Z,6.53
2022-08-09T19:42:15.137Z,4.88
2022-08-09T19:44:49.241Z,4.95
2022-08-09T19:47:19.785Z,5.97
2022-08-09T19:50:08.986Z,4.05
2022-08-09T19:52:49.633Z,6.15
2022-08-09T19:55:30.480Z,5.97
2022-08-09T19:58:07.252Z,3.83
2022-08-09T20:00:45.659Z,4.38
2022-08-09T20:04:13.911Z,6.57
2022-08-09T20:06:03.259Z,5.60
2022-08-09T20:08:35.167Z,7.70
2022-08-09T20:11:04.408Z,6.07
2022-08-09T20:13:37.248Z,5.55
2022-08-09T20:16:35.773Z,7.50
2022-08-09T20:19:42.221Z,5.18
2022-08-09T20:21:56.125Z,3.70
2022-08-09T20:27:05.629Z,4.85
2022-08-09T20:29:38.556Z,5.13
2022-08-09T20:32:30.442Z,3.42
2022-08-09T20:34:59.179Z,4.25
2022-08-09T20:37:37.327Z,4.07
2022-08-09T20:40:19.171Z,3.65
2022-08-09T20:42:59.916Z,4.78
2022-08-09T20:45:59.837Z,4.72
2022-08-09T20:48:28.915Z,4.05
2022-08-09T20:50:59.785Z,4.70
2022-08-09T20:53:36.499Z,6.10
2022-08-09T20:56:08.766Z,5.05
2022-08-09T20:58:36.525Z,4.55
2022-08-09T21:01:32.777Z,3.53
2022-08-09T21:04:08.404Z,5.60
2022-08-09T21:06:44.112Z,5.20
2022-08-09T21:09:14.148Z,5.40
2022-08-09T21:14:31.318Z,3.85
2022-08-09T21:17:00.399Z,5.82
2022-08-09T21:20:17.756Z,4.13
2022-08-09T21:22:23.118Z,5.65
2022-08-09T21:25:21.597Z,4.60
2022-08-09T21:28:01.194Z,4.38
2022-08-09T21:30:28.562Z,3.92
2022-08-09T21:32:57.202Z,4.88
2022-08-09T21:35:24.557Z,5.30
2022-08-09T21:37:58.686Z,4.00
2022-08-09T21:40:30.792Z,3.72
2022-08-09T21:43:00.713Z,3.67
2022-08-09T21:45:28.399Z,5.95
2022-08-09T21:47:58.881Z,3.97
2022-08-09T21:50:35.103Z,4.38
2022-08-09T21:53:23.850Z,7.88
2022-08-09T21:55:54.426Z,4.47
2022-08-09T21:58:21.709Z,5.95
2022-08-09T22:00:58.677Z,4.13
2022-08-09T22:03:26.309Z,5.72
2022-08-09T22:05:55.445Z,3.13
2022-08-09T22:08:28.399Z,7.72
2022-08-09T22:11:00.809Z,4.35
2022-08-09T22:13:43.872Z,3.38
2022-08-09T22:16:11.711Z,3.80
2022-08-09T22:18:54.390Z,3.85
2022-08-09T22:23:59.185Z,4.38
2022-08-09T22:26:35.361Z,4.38
2022-08-09T22:29:10.393Z,3.97
2022-08-09T22:31:50.662Z,3.85
2022-08-09T22:34:28.574Z,4.07
2022-08-09T22:36:57.743Z,3.80
2022-08-09T22:39:57.917Z,5.45
2022-08-09T22:42:22.254Z,4.32
2022-08-09T22:45:01.568Z,3.70
2022-08-09T22:48:14.952Z,4.67
2022-08-09T22:50:32.186Z,3.67
2022-08-09T22:53:03.771Z,5.60
2022-08-09T22:56:06.187Z,3.83
2022-08-09T22:58:20.278Z,4.45
2022-08-09T23:01:02.072Z,4.78
2022-08-09T23:04:04.418Z,3.78
2022-08-09T23:06:30.102Z,3.63
2022-08-09T23:09:07.405Z,6.43
2022-08-09T23:11:34.826Z,4.65
2022-08-09T23:14:03.517Z,4.13
2022-08-09T23:16:31.616Z,4.88
2022-08-09T23:18:59.061Z,5.28
2022-08-09T23:21:32.631Z,4.05
2022-08-09T23:24:06.409Z,4.57
2022-08-09T23:26:37.865Z,4.88
2022-08-09T23:29:06.332Z,4.35
2022-08-09T23:31:34.289Z,4.40
2022-08-09T23:34:02.489Z,3.70
2022-08-09T23:36:31.778Z,4.07
2022-08-09T23:38:59.302Z,3.28
2022-08-09T23:41:27.907Z,3.53
2022-08-09T23:44:01.060Z,4.57
2022-08-09T23:46:29.400Z,3.67
2022-08-09T23:48:57.995Z,3.58
2022-08-09T23:51:25.543Z,4.32
2022-08-09T23:53:55.201Z,3.65
2022-08-09T23:56:52.143Z,4.45
2022-08-09T23:59:13.235Z,3.85
